sensor_id;sensor_type;location;lat;lon;timestamp;pressure;altitude;pressure_sealevel;temperature;humidity
83557;BME280;73523;55.740;13.276;2023-12-29T00:00:47;99005.34;;;22.98;34.30
83557;BME280;73523;55.740;13.276;2023-12-29T00:03:12;99013.94;;;22.96;34.33
83557;BME280;73523;55.740;13.276;2023-12-29T00:05:37;99015.28;;;22.99;34.29
83557;BME280;73523;55.740;13.276;2023-12-29T00:08:03;99016.69;;;22.96;34.20
83557;BME280;73523;55.740;13.276;2023-12-29T00:10:28;98988.03;;;22.92;33.96
83557;BME280;73523;55.740;13.276;2023-12-29T00:12:54;98991.28;;;22.94;34.24
83557;BME280;73523;55.740;13.276;2023-12-29T00:15:19;98993.28;;;22.94;34.17
83557;BME280;73523;55.740;13.276;2023-12-29T00:17:45;98985.28;;;22.92;34.05
83557;BME280;73523;55.740;13.276;2023-12-29T00:20:11;98978.31;;;22.95;33.86
83557;BME280;73523;55.740;13.276;2023-12-29T00:22:37;98973.94;;;22.94;34.05
83557;BME280;73523;55.740;13.276;2023-12-29T00:25:02;98974.53;;;22.91;33.96
83557;BME280;73523;55.740;13.276;2023-12-29T00:27:28;98976.47;;;22.90;33.85
83557;BME280;73523;55.740;13.276;2023-12-29T00:29:53;98966.75;;;22.93;33.93
83557;BME280;73523;55.740;13.276;2023-12-29T00:32:19;98958.47;;;22.93;33.83
83557;BME280;73523;55.740;13.276;2023-12-29T00:34:44;98953.53;;;22.90;33.93
83557;BME280;73523;55.740;13.276;2023-12-29T00:37:09;98948.84;;;22.90;33.74
83557;BME280;73523;55.740;13.276;2023-12-29T00:39:35;98951.31;;;22.92;33.85
83557;BME280;73523;55.740;13.276;2023-12-29T00:42:04;98938.31;;;22.92;33.92
83557;BME280;73523;55.740;13.276;2023-12-29T00:44:30;98926.44;;;22.92;33.58
83557;BME280;73523;55.740;13.276;2023-12-29T00:46:56;98925.63;;;22.91;33.74
83557;BME280;73523;55.740;13.276;2023-12-29T00:49:21;98934.22;;;22.90;33.60
83557;BME280;73523;55.740;13.276;2023-12-29T00:51:47;98924.28;;;22.89;33.54
83557;BME280;73523;55.740;13.276;2023-12-29T00:54:13;98918.44;;;22.90;33.83
83557;BME280;73523;55.740;13.276;2023-12-29T00:56:38;98926.72;;;22.90;34.13
83557;BME280;73523;55.740;13.276;2023-12-29T00:59:04;98931.13;;;22.91;33.62
83557;BME280;73523;55.740;13.276;2023-12-29T01:01:33;98919.88;;;22.88;33.72
83557;BME280;73523;55.740;13.276;2023-12-29T01:03:58;98918.75;;;22.89;33.59
83557;BME280;73523;55.740;13.276;2023-12-29T01:06:24;98918.75;;;22.89;33.71
83557;BME280;73523;55.740;13.276;2023-12-29T01:08:49;98919.03;;;22.87;33.60
83557;BME280;73523;55.740;13.276;2023-12-29T01:11:14;98925.09;;;22.89;33.33
83557;BME280;73523;55.740;13.276;2023-12-29T01:13:40;98901.94;;;22.85;33.59
83557;BME280;73523;55.740;13.276;2023-12-29T01:16:05;98910.75;;;22.87;33.44
83557;BME280;73523;55.740;13.276;2023-12-29T01:18:31;98913.81;;;22.86;33.73
83557;BME280;73523;55.740;13.276;2023-12-29T01:20:57;98911.06;;;22.86;33.52
83557;BME280;73523;55.740;13.276;2023-12-29T01:23:22;98911.88;;;22.86;33.28
83557;BME280;73523;55.740;13.276;2023-12-29T01:25:48;98893.66;;;22.85;33.60
83557;BME280;73523;55.740;13.276;2023-12-29T01:28:13;98897.25;;;22.86;33.63
83557;BME280;73523;55.740;13.276;2023-12-29T01:30:38;98888.13;;;22.85;33.54
83557;BME280;73523;55.740;13.276;2023-12-29T01:33:04;98879.56;;;22.87;33.72
83557;BME280;73523;55.740;13.276;2023-12-29T01:35:29;98861.94;;;22.83;33.69
83557;BME280;73523;55.740;13.276;2023-12-29T01:37:54;98877.09;;;22.85;33.49
83557;BME280;73523;55.740;13.276;2023-12-29T01:40:22;98877.91;;;22.86;33.51
83557;BME280;73523;55.740;13.276;2023-12-29T01:42:47;98877.38;;;22.84;33.69
83557;BME280;73523;55.740;13.276;2023-12-29T01:45:23;98862.25;;;22.81;33.57
83557;BME280;73523;55.740;13.276;2023-12-29T01:47:49;98876.28;;;22.85;33.55
83557;BME280;73523;55.740;13.276;2023-12-29T01:50:17;98888.97;;;22.86;33.47
83557;BME280;73523;55.740;13.276;2023-12-29T01:52:45;98876.56;;;22.83;33.50
83557;BME280;73523;55.740;13.276;2023-12-29T01:55:12;98887.63;;;22.83;33.44
83557;BME280;73523;55.740;13.276;2023-12-29T01:57:40;98877.91;;;22.86;33.46
83557;BME280;73523;55.740;13.276;2023-12-29T02:00:06;98879.84;;;22.85;33.37
83557;BME280;73523;55.740;13.276;2023-12-29T02:02:32;98868.81;;;22.85;33.73
83557;BME280;73523;55.740;13.276;2023-12-29T02:04:57;98866.63;;;22.82;33.62
83557;BME280;73523;55.740;13.276;2023-12-29T02:07:23;98880.66;;;22.86;33.53
83557;BME280;73523;55.740;13.276;2023-12-29T02:09:49;98879.34;;;22.83;33.40
83557;BME280;73523;55.740;13.276;2023-12-29T02:12:17;98868.28;;;22.83;33.45
83557;BME280;73523;55.740;13.276;2023-12-29T02:14:42;98846.88;;;22.75;33.49
83557;BME280;73523;55.740;13.276;2023-12-29T02:17:16;98862.75;;;22.83;33.46
83557;BME280;73523;55.740;13.276;2023-12-29T02:19:44;98854.28;;;22.80;33.38
83557;BME280;73523;55.740;13.276;2023-12-29T02:22:10;98856.75;;;22.81;33.41
83557;BME280;73523;55.740;13.276;2023-12-29T02:24:37;98864.69;;;22.83;33.38
83557;BME280;73523;55.740;13.276;2023-12-29T02:27:16;98849.56;;;22.80;33.46
83557;BME280;73523;55.740;13.276;2023-12-29T02:29:56;98849.28;;;22.82;33.16
83557;BME280;73523;55.740;13.276;2023-12-29T02:32:27;98844.25;;;22.84;33.25
83557;BME280;73523;55.740;13.276;2023-12-29T02:34:55;98848.63;;;22.85;33.22
83557;BME280;73523;55.740;13.276;2023-12-29T02:37:23;98840.66;;;22.83;33.33
83557;BME280;73523;55.740;13.276;2023-12-29T02:39:49;98843.41;;;22.83;33.50
83557;BME280;73523;55.740;13.276;2023-12-29T02:42:14;98856.09;;;22.84;33.31
83557;BME280;73523;55.740;13.276;2023-12-29T02:44:40;98856.09;;;22.84;33.30
83557;BME280;73523;55.740;13.276;2023-12-29T02:47:05;98845.34;;;22.83;33.25
83557;BME280;73523;55.740;13.276;2023-12-29T02:49:31;98840.88;;;22.87;33.14
83557;BME280;73523;55.740;13.276;2023-12-29T02:51:56;98830.94;;;22.86;33.13
83557;BME280;73523;55.740;13.276;2023-12-29T02:54:21;98834.53;;;22.86;33.28
83557;BME280;73523;55.740;13.276;2023-12-29T02:56:47;98845.28;;;22.88;33.17
83557;BME280;73523;55.740;13.276;2023-12-29T02:59:12;98834.53;;;22.86;33.15
83557;BME280;73523;55.740;13.276;2023-12-29T03:01:38;98832.28;;;22.88;33.29
83557;BME280;73523;55.740;13.276;2023-12-29T03:04:03;98842.22;;;22.89;33.28
83557;BME280;73523;55.740;13.276;2023-12-29T03:06:28;98840.56;;;22.88;33.35
83557;BME280;73523;55.740;13.276;2023-12-29T03:08:54;98845.56;;;22.86;33.27
83557;BME280;73523;55.740;13.276;2023-12-29T03:11:19;98848.56;;;22.90;32.98
83557;BME280;73523;55.740;13.276;2023-12-29T03:13:44;98841.09;;;22.90;33.19
83557;BME280;73523;55.740;13.276;2023-12-29T03:16:10;98843.84;;;22.90;33.17
83557;BME280;73523;55.740;13.276;2023-12-29T03:18:35;98816.13;;;22.82;33.09
83557;BME280;73523;55.740;13.276;2023-12-29T03:21:05;98834.75;;;22.90;33.32
83557;BME280;73523;55.740;13.276;2023-12-29T03:23:30;98831.16;;;22.89;33.11
83557;BME280;73523;55.740;13.276;2023-12-29T03:25:55;98831.75;;;22.86;33.17
83557;BME280;73523;55.740;13.276;2023-12-29T03:28:21;98835.03;;;22.88;33.35
83557;BME280;73523;55.740;13.276;2023-12-29T03:30:46;98833.72;;;22.86;33.35
83557;BME280;73523;55.740;13.276;2023-12-29T03:33:11;98819.91;;;22.86;33.12
83557;BME280;73523;55.740;13.276;2023-12-29T03:35:37;98825.13;;;22.87;33.01
83557;BME280;73523;55.740;13.276;2023-12-29T03:38:02;98814.38;;;22.86;33.12
83557;BME280;73523;55.740;13.276;2023-12-29T03:40:27;98825.41;;;22.86;33.25
83557;BME280;73523;55.740;13.276;2023-12-29T03:42:53;98819.91;;;22.86;33.24
83557;BME280;73523;55.740;13.276;2023-12-29T03:45:18;98827.88;;;22.87;33.30
83557;BME280;73523;55.740;13.276;2023-12-29T03:47:43;98831.16;;;22.89;33.15
83557;BME280;73523;55.740;13.276;2023-12-29T03:50:09;98823.69;;;22.90;33.11
83557;BME280;73523;55.740;13.276;2023-12-29T03:52:34;98822.88;;;22.89;33.24
83557;BME280;73523;55.740;13.276;2023-12-29T03:54:59;98818.97;;;22.90;33.08
83557;BME280;73523;55.740;13.276;2023-12-29T03:57:25;98799.66;;;22.90;33.20
83557;BME280;73523;55.740;13.276;2023-12-29T03:59:50;98804.56;;;22.93;32.95
83557;BME280;73523;55.740;13.276;2023-12-29T04:02:15;98801.81;;;22.93;32.87
83557;BME280;73523;55.740;13.276;2023-12-29T04:04:42;98805.38;;;22.94;33.02
83557;BME280;73523;55.740;13.276;2023-12-29T04:07:08;98803.94;;;22.96;32.85
83557;BME280;73523;55.740;13.276;2023-12-29T04:09:33;98811.41;;;22.96;32.84
83557;BME280;73523;55.740;13.276;2023-12-29T04:11:59;98807.50;;;22.97;32.78
83557;BME280;73523;55.740;13.276;2023-12-29T04:14:24;98803.41;;;22.94;32.92
83557;BME280;73523;55.740;13.276;2023-12-29T04:16:49;98810.28;;;22.97;33.09
83557;BME280;73523;55.740;13.276;2023-12-29T04:19:14;98795.94;;;22.95;32.99
83557;BME280;73523;55.740;13.276;2023-12-29T04:21:40;98792.88;;;22.96;32.91
83557;BME280;73523;55.740;13.276;2023-12-29T04:24:05;98798.09;;;22.98;32.88
83557;BME280;73523;55.740;13.276;2023-12-29T04:26:35;98784.06;;;22.94;33.02
83557;BME280;73523;55.740;13.276;2023-12-29T04:29:01;98803.94;;;22.96;33.03
83557;BME280;73523;55.740;13.276;2023-12-29T04:31:26;98796.44;;;22.97;32.81
83557;BME280;73523;55.740;13.276;2023-12-29T04:33:52;98792.06;;;22.96;33.03
83557;BME280;73523;55.740;13.276;2023-12-29T04:36:17;98787.34;;;22.96;33.01
83557;BME280;73523;55.740;13.276;2023-12-29T04:38:42;98788.97;;;22.97;32.96
83557;BME280;73523;55.740;13.276;2023-12-29T04:41:08;98786.53;;;22.96;32.80
83557;BME280;73523;55.740;13.276;2023-12-29T04:43:33;98782.63;;;22.97;32.96
83557;BME280;73523;55.740;13.276;2023-12-29T04:45:58;98787.34;;;22.96;32.93
83557;BME280;73523;55.740;13.276;2023-12-29T04:48:24;98778.25;;;22.96;32.91
83557;BME280;73523;55.740;13.276;2023-12-29T04:50:49;98755.81;;;22.97;32.83
83557;BME280;73523;55.740;13.276;2023-12-29T04:53:14;98753.06;;;22.97;33.06
83557;BME280;73523;55.740;13.276;2023-12-29T04:55:39;98749.47;;;22.97;32.91
83557;BME280;73523;55.740;13.276;2023-12-29T04:58:05;98754.50;;;22.95;33.08
83557;BME280;73523;55.740;13.276;2023-12-29T05:00:30;98761.66;;;22.96;33.11
83557;BME280;73523;55.740;13.276;2023-12-29T05:02:55;98776.28;;;22.96;35.54
83557;BME280;73523;55.740;13.276;2023-12-29T05:05:21;98776.00;;;22.98;38.80
83557;BME280;73523;55.740;13.276;2023-12-29T05:07:46;98766.06;;;22.97;36.47
83557;BME280;73523;55.740;13.276;2023-12-29T05:10:11;98769.66;;;22.97;36.08
83557;BME280;73523;55.740;13.276;2023-12-29T05:12:36;98765.75;;;22.98;35.12
83557;BME280;73523;55.740;13.276;2023-12-29T05:15:02;98755.81;;;22.97;34.89
83557;BME280;73523;55.740;13.276;2023-12-29T05:17:28;98753.56;;;22.99;35.18
83557;BME280;73523;55.740;13.276;2023-12-29T05:19:53;98746.09;;;23.00;34.99
83557;BME280;73523;55.740;13.276;2023-12-29T05:22:18;98751.03;;;23.03;34.92
83557;BME280;73523;55.740;13.276;2023-12-29T05:24:44;98750.72;;;23.05;34.85
83557;BME280;73523;55.740;13.276;2023-12-29T05:27:10;98744.88;;;23.06;35.02
83557;BME280;73523;55.740;13.276;2023-12-29T05:29:36;98738.53;;;23.06;34.74
83557;BME280;73523;55.740;13.276;2023-12-29T05:32:01;98738.19;;;23.07;34.69
83557;BME280;73523;55.740;13.276;2023-12-29T05:34:27;98723.91;;;23.05;34.58
83557;BME280;73523;55.740;13.276;2023-12-29T05:36:53;98718.03;;;23.07;34.41
83557;BME280;73523;55.740;13.276;2023-12-29T05:39:18;98722.44;;;23.08;34.38
83557;BME280;73523;55.740;13.276;2023-12-29T05:41:44;98714.16;;;23.08;34.51
83557;BME280;73523;55.740;13.276;2023-12-29T05:44:09;98711.38;;;23.08;34.58
83557;BME280;73523;55.740;13.276;2023-12-29T05:46:34;98706.19;;;23.06;34.49
83557;BME280;73523;55.740;13.276;2023-12-29T05:49:00;98701.47;;;23.07;34.46
83557;BME280;73523;55.740;13.276;2023-12-29T05:51:25;98708.97;;;23.06;34.38
83557;BME280;73523;55.740;13.276;2023-12-29T05:53:50;98706.97;;;23.07;34.31
83557;BME280;73523;55.740;13.276;2023-12-29T05:56:16;98705.69;;;23.04;33.84
83557;BME280;73523;55.740;13.276;2023-12-29T05:58:42;98704.06;;;23.03;34.02
83557;BME280;73523;55.740;13.276;2023-12-29T06:01:10;98702.72;;;23.01;34.06
83557;BME280;73523;55.740;13.276;2023-12-29T06:03:36;98704.34;;;23.02;34.19
83557;BME280;73523;55.740;13.276;2023-12-29T06:06:02;98715.41;;;23.02;34.05
83557;BME280;73523;55.740;13.276;2023-12-29T06:08:27;98715.91;;;23.04;33.89
83557;BME280;73523;55.740;13.276;2023-12-29T06:10:52;98705.47;;;23.01;33.85
83557;BME280;73523;55.740;13.276;2023-12-29T06:13:18;98699.66;;;23.02;33.92
83557;BME280;73523;55.740;13.276;2023-12-29T06:15:43;98704.06;;;23.03;33.81
83557;BME280;73523;55.740;13.276;2023-12-29T06:18:09;98708.44;;;23.04;33.73
83557;BME280;73523;55.740;13.276;2023-12-29T06:20:34;98683.88;;;23.03;33.87
83557;BME280;73523;55.740;13.276;2023-12-29T06:22:59;98685.84;;;23.02;33.76
83557;BME280;73523;55.740;13.276;2023-12-29T06:25:25;98688.59;;;23.02;33.66
83557;BME280;73523;55.740;13.276;2023-12-29T06:27:51;98691.06;;;23.04;33.76
83557;BME280;73523;55.740;13.276;2023-12-29T06:30:16;98689.09;;;23.04;33.65
83557;BME280;73523;55.740;13.276;2023-12-29T06:32:42;98686.66;;;23.03;33.67
83557;BME280;73523;55.740;13.276;2023-12-29T06:35:08;98680.31;;;23.02;33.95
83557;BME280;73523;55.740;13.276;2023-12-29T06:37:36;98686.44;;;22.99;33.75
83557;BME280;73523;55.740;13.276;2023-12-29T06:40:02;98691.97;;;22.99;34.08
83557;BME280;73523;55.740;13.276;2023-12-29T06:42:28;98690.47;;;22.93;34.22
83557;BME280;73523;55.740;13.276;2023-12-29T06:44:54;98684.59;;;22.94;33.92
83557;BME280;73523;55.740;13.276;2023-12-29T06:47:19;98692.88;;;22.94;34.26
83557;BME280;73523;55.740;13.276;2023-12-29T06:49:44;98686.38;;;22.90;34.26
83557;BME280;73523;55.740;13.276;2023-12-29T06:52:10;98685.56;;;22.90;34.08
83557;BME280;73523;55.740;13.276;2023-12-29T06:54:35;98696.09;;;22.88;34.27
83557;BME280;73523;55.740;13.276;2023-12-29T06:57:00;98694.97;;;22.89;34.20
83557;BME280;73523;55.740;13.276;2023-12-29T06:59:26;98701.69;;;22.96;34.23
83557;BME280;73523;55.740;13.276;2023-12-29T07:01:51;98690.94;;;22.95;34.08
83557;BME280;73523;55.740;13.276;2023-12-29T07:04:16;98700.06;;;22.95;34.28
83557;BME280;73523;55.740;13.276;2023-12-29T07:06:42;98713.88;;;22.95;34.10
83557;BME280;73523;55.740;13.276;2023-12-29T07:09:08;98713.25;;;22.98;34.25
83557;BME280;73523;55.740;13.276;2023-12-29T07:11:34;98704.44;;;22.96;34.28
83557;BME280;73523;55.740;13.276;2023-12-29T07:13:59;98718.47;;;23.00;34.25
83557;BME280;73523;55.740;13.276;2023-12-29T07:16:25;98711.81;;;23.01;34.19
83557;BME280;73523;55.740;13.276;2023-12-29T07:18:50;98726.47;;;23.02;34.27
83557;BME280;73523;55.740;13.276;2023-12-29T07:21:17;98718.69;;;23.04;34.13
83557;BME280;73523;55.740;13.276;2023-12-29T07:23:43;98719.19;;;23.06;34.19
83557;BME280;73523;55.740;13.276;2023-12-29T07:26:09;98709.75;;;23.07;34.20
83557;BME280;73523;55.740;13.276;2023-12-29T07:28:34;98707.81;;;23.07;34.86
83557;BME280;73523;55.740;13.276;2023-12-29T07:31:00;98719.69;;;23.08;34.53
83557;BME280;73523;55.740;13.276;2023-12-29T07:33:26;98712.72;;;23.10;34.70
83557;BME280;73523;55.740;13.276;2023-12-29T07:35:51;98712.22;;;23.08;34.62
83557;BME280;73523;55.740;13.276;2023-12-29T07:38:17;98715.78;;;23.09;34.83
83557;BME280;73523;55.740;13.276;2023-12-29T07:40:42;98724.59;;;23.11;34.74
83557;BME280;73523;55.740;13.276;2023-12-29T07:43:08;98716.81;;;23.13;34.76
83557;BME280;73523;55.740;13.276;2023-12-29T07:45:33;98716.81;;;23.13;34.76
83557;BME280;73523;55.740;13.276;2023-12-29T07:47:58;98714.88;;;23.13;34.46
83557;BME280;73523;55.740;13.276;2023-12-29T07:50:24;98700.53;;;23.11;34.46
83557;BME280;73523;55.740;13.276;2023-12-29T07:52:49;98697.78;;;23.11;34.75
83557;BME280;73523;55.740;13.276;2023-12-29T07:55:15;98702.19;;;23.12;34.65
83557;BME280;73523;55.740;13.276;2023-12-29T07:57:42;98696.66;;;23.12;34.81
83557;BME280;73523;55.740;13.276;2023-12-29T08:00:08;98691.13;;;23.12;34.63
83557;BME280;73523;55.740;13.276;2023-12-29T08:02:34;98677.91;;;23.09;34.54
83557;BME280;73523;55.740;13.276;2023-12-29T08:04:59;98686.41;;;23.13;34.67
83557;BME280;73523;55.740;13.276;2023-12-29T08:07:25;98693.56;;;23.14;34.51
83557;BME280;73523;55.740;13.276;2023-12-29T08:09:50;98697.47;;;23.13;34.43
83557;BME280;73523;55.740;13.276;2023-12-29T08:12:15;98705.75;;;23.13;34.60
83557;BME280;73523;55.740;13.276;2023-12-29T08:14:41;98716.81;;;23.13;34.45
83557;BME280;73523;55.740;13.276;2023-12-29T08:17:06;98711.59;;;23.11;34.62
83557;BME280;73523;55.740;13.276;2023-12-29T08:19:32;98717.63;;;23.13;34.58
83557;BME280;73523;55.740;13.276;2023-12-29T08:21:57;98714.56;;;23.15;34.57
83557;BME280;73523;55.740;13.276;2023-12-29T08:24:23;98722.03;;;23.14;34.27
83557;BME280;73523;55.740;13.276;2023-12-29T08:26:48;98720.41;;;23.13;34.37
83557;BME280;73523;55.740;13.276;2023-12-29T08:29:14;98720.09;;;23.15;34.39
83557;BME280;73523;55.740;13.276;2023-12-29T08:31:39;98717.63;;;23.13;34.23
83557;BME280;73523;55.740;13.276;2023-12-29T08:34:05;98710.16;;;23.14;34.32
83557;BME280;73523;55.740;13.276;2023-12-29T08:36:30;98711.28;;;23.13;34.35
83557;BME280;73523;55.740;13.276;2023-12-29T08:38:55;98713.44;;;23.16;34.45
83557;BME280;73523;55.740;13.276;2023-12-29T08:41:22;98713.75;;;23.14;34.28
83557;BME280;73523;55.740;13.276;2023-12-29T08:43:47;98718.16;;;23.15;34.26
83557;BME280;73523;55.740;13.276;2023-12-29T08:46:12;98723.97;;;23.14;34.40
83557;BME280;73523;55.740;13.276;2023-12-29T08:48:38;98738.81;;;23.18;34.29
83557;BME280;73523;55.740;13.276;2023-12-29T08:51:03;98747.59;;;23.20;34.25
83557;BME280;73523;55.740;13.276;2023-12-29T08:53:29;98740.25;;;23.15;34.23
83557;BME280;73523;55.740;13.276;2023-12-29T08:55:58;98738.81;;;23.18;34.28
83557;BME280;73523;55.740;13.276;2023-12-29T08:58:24;98747.59;;;23.20;34.35
83557;BME280;73523;55.740;13.276;2023-12-29T09:00:49;98746.28;;;23.17;34.14
83557;BME280;73523;55.740;13.276;2023-12-29T09:03:14;98754.59;;;23.17;34.46
83557;BME280;73523;55.740;13.276;2023-12-29T09:05:39;98757.34;;;23.17;34.30
83557;BME280;73523;55.740;13.276;2023-12-29T09:08:05;98752.31;;;23.19;34.51
83557;BME280;73523;55.740;13.276;2023-12-29T09:10:30;98757.34;;;23.17;34.37
83557;BME280;73523;55.740;13.276;2023-12-29T09:12:56;98763.69;;;23.18;34.10
83557;BME280;73523;55.740;13.276;2023-12-29T09:15:21;98765.31;;;23.19;34.34
83557;BME280;73523;55.740;13.276;2023-12-29T09:17:46;98768.41;;;23.17;34.29
83557;BME280;73523;55.740;13.276;2023-12-29T09:20:12;98768.06;;;23.19;33.97
83557;BME280;73523;55.740;13.276;2023-12-29T09:22:37;98763.19;;;23.16;34.36
83557;BME280;73523;55.740;13.276;2023-12-29T09:25:03;98767.38;;;23.13;34.42
83557;BME280;73523;55.740;13.276;2023-12-29T09:27:29;98774.25;;;23.16;34.13
83557;BME280;73523;55.740;13.276;2023-12-29T09:29:54;98768.41;;;23.17;33.97
83557;BME280;73523;55.740;13.276;2023-12-29T09:32:19;98770.03;;;23.18;34.14
83557;BME280;73523;55.740;13.276;2023-12-29T09:34:45;98768.88;;;23.19;34.12
83557;BME280;73523;55.740;13.276;2023-12-29T09:37:10;98787.41;;;23.19;33.92
83557;BME280;73523;55.740;13.276;2023-12-29T09:39:35;98777.19;;;23.19;34.29
83557;BME280;73523;55.740;13.276;2023-12-29T09:42:03;98769.41;;;23.21;33.98
83557;BME280;73523;55.740;13.276;2023-12-29T09:44:31;98783.22;;;23.21;34.18
83557;BME280;73523;55.740;13.276;2023-12-29T09:47:00;98768.28;;;23.22;34.33
83557;BME280;73523;55.740;13.276;2023-12-29T09:49:27;98770.53;;;23.20;34.16
83557;BME280;73523;55.740;13.276;2023-12-29T09:51:57;98771.88;;;23.23;34.08
83557;BME280;73523;55.740;13.276;2023-12-29T09:54:23;98782.09;;;23.22;34.13
83557;BME280;73523;55.740;13.276;2023-12-29T09:56:49;98778.22;;;23.23;33.84
83557;BME280;73523;55.740;13.276;2023-12-29T09:59:16;98779.63;;;23.21;34.16
83557;BME280;73523;55.740;13.276;2023-12-29T10:01:44;98777.69;;;23.21;33.80
83557;BME280;73523;55.740;13.276;2023-12-29T10:04:11;98779.13;;;23.19;33.82
83557;BME280;73523;55.740;13.276;2023-12-29T10:06:38;98782.22;;;23.17;34.22
83557;BME280;73523;55.740;13.276;2023-12-29T10:09:07;98767.91;;;23.15;33.95
83557;BME280;73523;55.740;13.276;2023-12-29T10:11:37;98774.25;;;23.16;34.09
83557;BME280;73523;55.740;13.276;2023-12-29T10:14:22;98760.72;;;23.14;34.07
83557;BME280;73523;55.740;13.276;2023-12-29T10:16:53;98762.16;;;23.12;33.86
83557;BME280;73523;55.740;13.276;2023-12-29T10:19:44;98765.75;;;23.12;34.16
83557;BME280;73523;55.740;13.276;2023-12-29T10:22:21;98759.28;;;23.17;34.10
83557;BME280;73523;55.740;13.276;2023-12-29T10:24:51;98768.59;;;23.21;33.82
83557;BME280;73523;55.740;13.276;2023-12-29T10:27:17;98769.41;;;23.21;33.86
83557;BME280;73523;55.740;13.276;2023-12-29T10:29:43;98769.09;;;23.23;34.03
83557;BME280;73523;55.740;13.276;2023-12-29T10:32:09;98765.22;;;23.24;33.88
83557;BME280;73523;55.740;13.276;2023-12-29T10:34:35;98764.59;;;23.27;33.82
83557;BME280;73523;55.740;13.276;2023-12-29T10:37:01;98764.28;;;23.28;33.85
83557;BME280;73523;55.740;13.276;2023-12-29T10:39:54;98747.19;;;23.26;33.75
83557;BME280;73523;55.740;13.276;2023-12-29T10:42:20;98760.88;;;23.31;33.84
83557;BME280;73523;55.740;13.276;2023-12-29T10:44:45;98756.38;;;23.35;33.46
83557;BME280;73523;55.740;13.276;2023-12-29T10:47:11;98773.78;;;23.36;33.74
83557;BME280;73523;55.740;13.276;2023-12-29T10:49:37;98760.16;;;23.40;33.73
83557;BME280;73523;55.740;13.276;2023-12-29T10:52:15;98755.44;;;23.40;33.43
83557;BME280;73523;55.740;13.276;2023-12-29T10:54:42;98761.78;;;23.41;33.42
83557;BME280;73523;55.740;13.276;2023-12-29T10:57:10;98766.19;;;23.42;33.58
83557;BME280;73523;55.740;13.276;2023-12-29T10:59:35;98773.34;;;23.43;33.36
83557;BME280;73523;55.740;13.276;2023-12-29T11:02:01;98761.16;;;23.44;33.64
83557;BME280;73523;55.740;13.276;2023-12-29T11:04:30;98773.53;;;23.46;33.70
83557;BME280;73523;55.740;13.276;2023-12-29T11:06:55;98772.09;;;23.49;33.86
83557;BME280;73523;55.740;13.276;2023-12-29T11:09:28;98765.75;;;23.48;33.88
83557;BME280;73523;55.740;13.276;2023-12-29T11:11:57;98770.41;;;23.53;33.55
83557;BME280;73523;55.740;13.276;2023-12-29T11:14:25;98772.03;;;23.54;33.71
83557;BME280;73523;55.740;13.276;2023-12-29T11:16:51;98769.56;;;23.52;33.70
83557;BME280;73523;55.740;13.276;2023-12-29T11:19:18;98760.47;;;23.52;34.08
83557;BME280;73523;55.740;13.276;2023-12-29T11:21:44;98763.75;;;23.54;33.55
83557;BME280;73523;55.740;13.276;2023-12-29T11:24:10;98766.00;;;23.52;33.67
83557;BME280;73523;55.740;13.276;2023-12-29T11:26:36;98760.22;;;23.48;34.00
83557;BME280;73523;55.740;13.276;2023-12-29T11:29:02;98765.44;;;23.50;33.65
83557;BME280;73523;55.740;13.276;2023-12-29T11:31:30;98759.63;;;23.51;33.78
83557;BME280;73523;55.740;13.276;2023-12-29T11:34:09;98759.41;;;23.48;33.62
83557;BME280;73523;55.740;13.276;2023-12-29T11:36:40;98763.22;;;23.52;33.49
83557;BME280;73523;55.740;13.276;2023-12-29T11:39:19;98762.09;;;23.53;33.67
83557;BME280;73523;55.740;13.276;2023-12-29T11:44:24;98761.97;;;23.58;33.92
83557;BME280;73523;55.740;13.276;2023-12-29T11:46:50;98765.53;;;23.58;33.49
83557;BME280;73523;55.740;13.276;2023-12-29T11:49:16;98760.00;;;23.58;33.70
83557;BME280;73523;55.740;13.276;2023-12-29T11:51:43;98762.16;;;23.61;33.47
83557;BME280;73523;55.740;13.276;2023-12-29T11:54:09;98765.44;;;23.63;33.39
83557;BME280;73523;55.740;13.276;2023-12-29T11:56:39;98763.19;;;23.65;33.50
83557;BME280;73523;55.740;13.276;2023-12-29T12:01:39;98751.47;;;23.68;33.54
83557;BME280;73523;55.740;13.276;2023-12-29T12:04:04;98747.88;;;23.68;33.30
83557;BME280;73523;55.740;13.276;2023-12-29T12:06:39;98752.59;;;23.67;33.49
83557;BME280;73523;55.740;13.276;2023-12-29T12:09:21;98760.41;;;23.65;33.48
83557;BME280;73523;55.740;13.276;2023-12-29T12:11:48;98746.75;;;23.69;33.17
83557;BME280;73523;55.740;13.276;2023-12-29T12:17:12;98759.75;;;23.68;33.12
83557;BME280;73523;55.740;13.276;2023-12-29T12:19:52;98759.75;;;23.68;33.42
83557;BME280;73523;55.740;13.276;2023-12-29T12:22:17;98759.75;;;23.68;33.12
83557;BME280;73523;55.740;13.276;2023-12-29T12:24:44;98767.59;;;23.66;33.57
83557;BME280;73523;55.740;13.276;2023-12-29T12:27:10;98777.50;;;23.67;33.57
83557;BME280;73523;55.740;13.276;2023-12-29T12:29:35;98787.75;;;23.67;33.35
83557;BME280;73523;55.740;13.276;2023-12-29T12:32:01;98784.19;;;23.66;33.38
83557;BME280;73523;55.740;13.276;2023-12-29T12:34:36;98785.78;;;23.67;33.28
83557;BME280;73523;55.740;13.276;2023-12-29T12:37:02;98784.19;;;23.66;33.42
83557;BME280;73523;55.740;13.276;2023-12-29T12:39:41;98773.44;;;23.65;33.49
83557;BME280;73523;55.740;13.276;2023-12-29T12:42:06;98767.91;;;23.65;33.73
83557;BME280;73523;55.740;13.276;2023-12-29T12:44:32;98780.59;;;23.66;33.60
83557;BME280;73523;55.740;13.276;2023-12-29T12:46:59;98771.47;;;23.65;33.50
83557;BME280;73523;55.740;13.276;2023-12-29T12:49:29;98777.84;;;23.66;33.73
83557;BME280;73523;55.740;13.276;2023-12-29T12:51:55;98773.72;;;23.63;33.72
83557;BME280;73523;55.740;13.276;2023-12-29T12:54:21;98760.22;;;23.62;33.25